createdAt,value
2019-05-17T00:00:03.361Z,38.60
2019-05-17T00:01:03.286Z,36.40
2019-05-17T00:02:03.249Z,37.20
2019-05-17T00:03:03.203Z,38.30
2019-05-17T00:04:03.161Z,39.10
2019-05-17T00:05:03.127Z,38.30
2019-05-17T00:06:03.100Z,39.80
2019-05-17T00:07:03.041Z,39.70
2019-05-17T00:08:02.997Z,38.20
2019-05-17T00:09:02.949Z,36.40
2019-05-17T00:10:02.941Z,38.00
2019-05-17T00:11:02.898Z,35.80
2019-05-17T00:12:02.833Z,35.50
2019-05-17T00:13:02.787Z,34.70
2019-05-17T00:14:02.737Z,36.80
2019-05-17T00:15:02.715Z,35.30
2019-05-17T00:16:02.688Z,35.10
2019-05-17T00:17:02.620Z,34.40
2019-05-17T00:18:02.582Z,36.00
2019-05-17T00:19:02.534Z,33.60
2019-05-17T00:20:02.504Z,33.40
2019-05-17T00:21:02.445Z,33.50
2019-05-17T00:22:02.433Z,33.80
2019-05-17T00:23:02.363Z,33.20
2019-05-17T00:24:02.323Z,32.90
2019-05-17T00:25:02.285Z,34.10
2019-05-17T00:26:02.249Z,34.80
2019-05-17T00:27:02.203Z,35.30
2019-05-17T00:28:02.173Z,34.80
2019-05-17T00:29:02.104Z,33.60
2019-05-17T00:30:02.068Z,33.40
2019-05-17T00:31:02.031Z,34.00
2019-05-17T00:32:01.980Z,33.30
2019-05-17T00:33:01.973Z,34.40
2019-05-17T00:34:01.931Z,32.00
2019-05-17T00:35:01.865Z,32.50
2019-05-17T00:36:01.816Z,32.50
2019-05-17T00:37:01.777Z,32.60
2019-05-17T00:38:01.737Z,32.40
2019-05-17T00:39:01.725Z,33.70
2019-05-17T00:40:01.648Z,34.00
2019-05-17T00:41:01.610Z,32.20
2019-05-17T00:42:01.589Z,31.80
2019-05-17T00:43:01.516Z,32.40
2019-05-17T00:44:01.478Z,31.90
2019-05-17T00:45:01.444Z,32.90
2019-05-17T00:46:01.407Z,33.30
2019-05-17T00:47:01.371Z,30.40
2019-05-17T00:48:01.332Z,31.80
2019-05-17T00:49:01.277Z,34.70
2019-05-17T00:50:01.231Z,31.90
2019-05-17T00:51:02.410Z,32.80
2019-05-17T00:52:01.137Z,32.20
2019-05-17T00:53:01.099Z,32.90
2019-05-17T00:54:01.056Z,33.20
2019-05-17T00:55:01.012Z,33.60
2019-05-17T00:56:00.999Z,32.20
2019-05-17T00:57:00.960Z,31.20
2019-05-17T00:58:00.896Z,31.20
2019-05-17T00:59:00.848Z,31.20
2019-05-17T01:00:00.800Z,29.90
2019-05-17T01:01:00.763Z,29.10
2019-05-17T01:02:00.748Z,30.40
2019-05-17T01:03:00.680Z,30.70
2019-05-17T01:04:00.634Z,30.00
2019-05-17T01:05:00.588Z,31.70
2019-05-17T01:06:00.548Z,30.50
2019-05-17T01:07:00.528Z,27.50
2019-05-17T01:08:00.472Z,29.90
2019-05-17T01:09:03.950Z,30.00
2019-05-17T01:10:00.379Z,30.70
2019-05-17T01:11:00.338Z,29.40
2019-05-17T01:12:00.329Z,29.50
2019-05-17T01:13:00.258Z,29.00
2019-05-17T01:14:00.218Z,28.70
2019-05-17T01:15:00.172Z,28.90
2019-05-17T01:16:00.131Z,29.70
2019-05-17T01:59:57.182Z,25.70
2019-05-17T02:00:57.144Z,26.60
2019-05-17T02:01:56.543Z,25.10
2019-05-17T02:02:57.554Z,25.20
2019-05-17T02:03:57.358Z,25.40
2019-05-17T02:04:56.984Z,25.00
2019-05-17T02:05:56.671Z,26.00
2019-05-17T02:06:57.261Z,26.80
2019-05-17T02:07:56.879Z,26.30
2019-05-17T02:08:56.819Z,25.70
2019-05-17T02:09:56.866Z,26.40
2019-05-17T02:10:54.750Z,28.10
2019-05-17T02:11:57.072Z,26.90
2019-05-17T02:12:56.909Z,27.40
2019-05-17T02:13:56.189Z,27.80
2019-05-17T02:14:54.577Z,28.10
2019-05-17T02:15:56.466Z,27.70
2019-05-17T02:16:54.491Z,26.60
2019-05-17T02:17:54.432Z,28.40
2019-05-17T02:18:54.394Z,29.30
2019-05-17T02:19:54.378Z,28.10
2019-05-17T02:20:54.296Z,27.70
2019-05-17T02:21:56.865Z,28.30
2019-05-17T02:22:56.385Z,28.70
2019-05-17T02:23:54.180Z,29.60
2019-05-17T02:24:54.129Z,30.30
2019-05-17T02:25:54.113Z,28.90
2019-05-17T02:26:54.047Z,30.00
2019-05-17T02:27:54.009Z,30.30
2019-05-17T02:28:53.964Z,30.50
2019-05-17T02:29:53.922Z,30.80
2019-05-17T02:30:53.904Z,29.90
2019-05-17T02:31:53.855Z,29.10
2019-05-17T02:32:54.210Z,30.70
2019-05-17T02:33:53.750Z,30.30
2019-05-17T02:34:53.716Z,30.10
2019-05-17T02:35:53.758Z,29.70
2019-05-17T02:36:53.695Z,30.30
2019-05-17T02:37:53.661Z,30.30
2019-05-17T02:38:53.542Z,31.30
2019-05-17T02:40:02.370Z,31.40
2019-05-17T02:40:53.797Z,30.30
2019-05-17T02:41:53.557Z,29.50
2019-05-17T02:42:53.720Z,30.40
2019-05-17T02:43:53.534Z,29.60
2019-05-17T02:44:53.318Z,29.40
2019-05-17T02:45:53.241Z,30.60
2019-05-17T02:46:53.841Z,30.80
2019-05-17T02:47:53.843Z,31.00
2019-05-17T02:48:53.847Z,30.90
2019-05-17T02:49:53.104Z,30.60
2019-05-17T02:50:53.320Z,31.40
2019-05-17T02:51:53.033Z,31.20
2019-05-17T02:52:53.012Z,31.00
2019-05-17T02:53:52.904Z,30.00
2019-05-17T02:54:52.925Z,31.30
2019-05-17T02:55:53.963Z,31.40
2019-05-17T02:56:53.830Z,31.80
2019-05-17T02:57:53.092Z,31.30
2019-05-17T02:58:53.331Z,31.80
2019-05-17T02:59:52.735Z,31.00
2019-05-17T03:00:53.460Z,31.80
2019-05-17T03:01:52.875Z,32.10
2019-05-17T03:02:53.588Z,32.20
2019-05-17T03:03:53.078Z,30.70
2019-05-17T03:04:52.724Z,31.60
2019-05-17T03:05:53.571Z,30.20
2019-05-17T03:06:53.260Z,30.90
2019-05-17T03:07:52.889Z,31.90
2019-05-17T03:08:52.546Z,31.60
2019-05-17T03:09:53.433Z,31.50
2019-05-17T03:10:53.519Z,31.60
2019-05-17T03:11:56.613Z,31.90
2019-05-17T03:12:53.021Z,31.30
2019-05-17T03:13:52.619Z,32.00
2019-05-17T03:14:52.908Z,32.10
2019-05-17T03:15:52.815Z,32.90
2019-05-17T03:16:53.661Z,31.70
2019-05-17T03:17:53.648Z,31.60
2019-05-17T03:18:53.041Z,31.90
2019-05-17T03:19:52.916Z,32.90
2019-05-17T03:20:52.732Z,31.60
2019-05-17T03:21:53.536Z,31.20
2019-05-17T03:22:52.583Z,32.60
2019-05-17T03:23:53.959Z,32.30
2019-05-17T03:24:53.277Z,32.60
2019-05-17T03:25:52.456Z,31.70
2019-05-17T03:26:52.678Z,32.00
2019-05-17T03:27:53.629Z,32.90
2019-05-17T03:28:53.866Z,31.40
2019-05-17T03:29:53.792Z,32.90
2019-05-17T03:30:56.311Z,31.50
2019-05-17T03:31:59.722Z,33.00
2019-05-17T03:32:56.094Z,32.40
2019-05-17T03:33:55.839Z,31.80
2019-05-17T03:35:06.082Z,32.20
2019-05-17T03:35:56.286Z,32.30
2019-05-17T03:36:56.430Z,32.30
2019-05-17T03:37:53.219Z,31.30
2019-05-17T03:38:53.459Z,30.70
2019-05-17T03:39:53.616Z,30.90
2019-05-17T03:41:17.713Z,32.10
2019-05-17T03:41:53.492Z,31.70
2019-05-17T03:42:53.584Z,31.80
2019-05-17T03:43:53.323Z,32.00
2019-05-17T03:44:53.078Z,31.30
2019-05-17T03:45:53.354Z,31.90
2019-05-17T03:46:53.175Z,32.10
2019-05-17T03:47:53.238Z,31.60
2019-05-17T03:48:53.224Z,31.80
2019-05-17T03:49:53.100Z,31.00
2019-05-17T03:50:53.162Z,30.40
2019-05-17T03:51:52.933Z,30.70
2019-05-17T03:52:53.418Z,29.30
2019-05-17T03:53:53.163Z,30.60
2019-05-17T03:54:53.108Z,29.60
2019-05-17T03:55:53.743Z,29.70
2019-05-17T03:56:53.004Z,30.10
2019-05-17T03:57:53.196Z,29.20
2019-05-17T03:58:52.993Z,28.40
2019-05-17T03:59:52.479Z,28.20
2019-05-17T04:00:53.120Z,28.30
2019-05-17T04:01:52.692Z,29.90
2019-05-17T04:02:53.392Z,28.10
2019-05-17T04:03:52.720Z,28.40
2019-05-17T04:04:52.708Z,26.80
2019-05-17T04:05:52.647Z,28.00
2019-05-17T04:06:52.481Z,29.60
2019-05-17T04:07:53.318Z,28.20
2019-05-17T04:08:52.637Z,28.40
2019-05-17T04:09:52.975Z,27.00
2019-05-17T04:10:52.698Z,27.50
2019-05-17T04:11:49.638Z,28.10
2019-05-17T04:12:52.722Z,26.40
2019-05-17T04:13:49.535Z,28.10
2019-05-17T04:14:49.495Z,28.30
2019-05-17T04:15:52.766Z,27.10
2019-05-17T04:16:49.425Z,26.40
2019-05-17T04:17:52.685Z,26.30
2019-05-17T04:18:49.330Z,26.30
2019-05-17T04:19:49.278Z,26.10
2019-05-17T04:20:52.536Z,25.90
2019-05-17T04:21:49.200Z,24.50
2019-05-17T04:22:49.151Z,25.30
2019-05-17T04:23:49.139Z,25.00
2019-05-17T04:24:52.322Z,25.20
2019-05-17T04:25:49.023Z,26.00
2019-05-17T04:26:52.011Z,25.00
2019-05-17T04:27:48.943Z,24.40
2019-05-17T04:28:48.896Z,25.80
2019-05-17T04:29:48.883Z,24.40
2019-05-17T04:30:48.822Z,24.80
2019-05-17T04:31:48.776Z,24.50
2019-05-17T04:32:48.733Z,24.00
2019-05-17T04:33:48.694Z,26.20
2019-05-17T04:34:48.652Z,25.00
2019-05-17T04:35:48.631Z,24.50
2019-05-17T04:36:48.564Z,24.70
2019-05-17T04:37:48.524Z,24.30
2019-05-17T04:38:48.507Z,25.10
2019-05-17T04:39:48.440Z,24.60
2019-05-17T04:40:48.431Z,25.40
2019-05-17T04:41:51.067Z,24.00
2019-05-17T04:42:48.320Z,24.60
2019-05-17T04:43:48.266Z,23.80
2019-05-17T04:44:48.231Z,24.00
2019-05-17T04:45:48.188Z,23.20
2019-05-17T04:46:48.165Z,24.10
2019-05-17T04:47:48.100Z,23.10
2019-05-17T04:48:48.060Z,23.80
2019-05-17T04:49:48.017Z,22.60
2019-05-17T04:50:47.982Z,23.40
2019-05-17T04:51:48.008Z,23.40
2019-05-17T04:52:47.901Z,23.00
2019-05-17T04:53:47.859Z,23.20
2019-05-17T04:54:47.808Z,22.20
2019-05-17T04:55:47.769Z,23.40
2019-05-17T04:56:47.724Z,23.10
2019-05-17T04:57:47.710Z,22.30
2019-05-17T04:58:50.211Z,22.50
2019-05-17T04:59:47.609Z,23.00
2019-05-17T05:00:47.559Z,22.90
2019-05-17T05:01:47.516Z,22.40
2019-05-17T05:02:47.509Z,22.70
2019-05-17T05:03:47.438Z,24.00
2019-05-17T05:04:47.397Z,21.40
2019-05-17T05:05:47.359Z,22.30
2019-05-17T05:06:47.311Z,21.70
2019-05-17T05:07:47.273Z,21.50
2019-05-17T05:08:47.250Z,21.70
2019-05-17T05:09:47.214Z,22.10
2019-05-17T05:10:47.150Z,21.70
2019-05-17T05:11:57.064Z,20.00
2019-05-17T05:12:47.063Z,19.50
2019-05-17T05:13:47.022Z,21.40
2019-05-17T05:14:46.978Z,21.00
2019-05-17T05:15:46.958Z,21.60
2019-05-17T05:16:46.896Z,20.20
2019-05-17T05:17:46.860Z,20.40
2019-05-17T05:18:46.826Z,19.50
2019-05-17T05:19:46.791Z,20.00
2019-05-17T05:20:46.724Z,20.90
2019-05-17T05:21:46.684Z,19.80
2019-05-17T05:22:46.647Z,20.30
2019-05-17T05:23:46.614Z,19.70
2019-05-17T05:24:46.587Z,21.00
2019-05-17T05:25:46.524Z,19.20
2019-05-17T05:26:46.478Z,18.40
2019-05-17T05:27:46.439Z,19.20
2019-05-17T05:28:49.186Z,21.20
2019-05-17T05:29:46.376Z,20.10
2019-05-17T05:30:46.318Z,20.00
2019-05-17T05:31:46.299Z,19.90
2019-05-17T05:32:46.228Z,19.50
2019-05-17T05:33:46.191Z,19.60
2019-05-17T05:34:46.525Z,19.90
2019-05-17T05:35:46.114Z,18.70
2019-05-17T05:36:46.108Z,18.20
2019-05-17T05:37:46.032Z,18.40
2019-05-17T05:38:45.990Z,19.30
2019-05-17T05:39:45.942Z,19.40
2019-05-17T05:40:45.898Z,19.10
2019-05-17T05:41:45.880Z,19.70
2019-05-17T05:42:45.822Z,20.20
2019-05-17T05:43:45.780Z,20.00
2019-05-17T05:44:45.742Z,19.80
2019-05-17T05:45:45.727Z,19.60
2019-05-17T05:46:45.651Z,19.20
2019-05-17T05:47:45.611Z,19.30
2019-05-17T05:48:45.576Z,19.90
2019-05-17T05:49:45.539Z,20.10
2019-05-17T05:50:45.487Z,19.10
2019-05-17T05:51:45.469Z,18.50
2019-05-17T05:52:45.402Z,18.70
2019-05-17T05:53:45.370Z,19.20
2019-05-17T05:54:45.330Z,18.30
2019-05-17T05:55:45.287Z,18.80
2019-05-17T05:56:45.271Z,19.00
2019-05-17T05:57:45.205Z,18.80
2019-05-17T05:58:45.212Z,18.90
2019-05-17T05:59:45.122Z,18.80
2019-05-17T06:00:45.080Z,19.00
2019-05-17T06:01:45.036Z,18.80
2019-05-17T06:02:45.004Z,18.40
2019-05-17T06:03:44.980Z,18.80
2019-05-17T06:04:44.914Z,18.40
2019-05-17T06:05:44.873Z,18.00
2019-05-17T06:06:44.837Z,17.30
2019-05-17T06:07:44.795Z,17.20
2019-05-17T06:08:44.785Z,17.20
2019-05-17T06:09:44.716Z,16.50
2019-05-17T06:10:44.663Z,17.70
2019-05-17T06:11:44.623Z,16.70
2019-05-17T06:12:44.581Z,16.30
2019-05-17T06:13:44.857Z,16.70
2019-05-17T06:14:44.558Z,17.00
2019-05-17T06:15:44.469Z,16.70
2019-05-17T06:16:47.271Z,17.40
2019-05-17T06:17:44.385Z,16.70
2019-05-17T06:18:44.340Z,16.60
2019-05-17T06:19:44.320Z,16.00
2019-05-17T06:20:44.260Z,17.00
2019-05-17T06:21:44.219Z,16.20
2019-05-17T06:22:44.171Z,16.20
2019-05-17T06:23:44.155Z,15.60
2019-05-17T06:24:44.089Z,14.60
2019-05-17T06:25:44.055Z,16.10
2019-05-17T06:26:44.047Z,15.80
2019-05-17T06:27:43.974Z,15.70
2019-05-17T06:28:43.929Z,15.00
2019-05-17T06:29:43.894Z,14.60
2019-05-17T06:30:43.934Z,14.60
2019-05-17T06:31:43.801Z,14.50
2019-05-17T06:32:43.794Z,14.60
2019-05-17T06:33:43.723Z,14.80
2019-05-17T06:34:43.709Z,14.80
2019-05-17T06:35:43.646Z,14.60
2019-05-17T06:36:43.597Z,15.60
2019-05-17T06:37:43.587Z,14.80
2019-05-17T06:38:43.523Z,14.10
2019-05-17T06:39:43.483Z,13.60
2019-05-17T06:40:43.438Z,15.60
2019-05-17T06:41:43.406Z,14.30
2019-05-17T06:42:45.429Z,14.30
2019-05-17T06:43:43.337Z,14.50
2019-05-17T06:44:43.275Z,14.50
2019-05-17T06:45:43.266Z,14.00
2019-05-17T06:46:43.197Z,14.50
2019-05-17T06:47:43.163Z,13.80
2019-05-17T06:48:43.120Z,13.70
2019-05-17T06:49:43.077Z,14.40
2019-05-17T06:50:43.390Z,14.20
2019-05-17T06:51:43.010Z,12.90
2019-05-17T06:52:43.742Z,13.30
2019-05-17T06:53:43.588Z,13.30
2019-05-17T06:54:42.866Z,13.50
2019-05-17T06:55:42.885Z,13.60
2019-05-17T06:56:42.808Z,14.20
2019-05-17T06:57:43.457Z,13.50
2019-05-17T06:58:42.710Z,13.40
2019-05-17T06:59:42.671Z,14.00
2019-05-17T07:00:42.654Z,12.80
2019-05-17T07:01:42.587Z,12.90
2019-05-17T07:02:42.543Z,13.60
2019-05-17T07:03:42.502Z,13.00
2019-05-17T07:04:42.487Z,12.80
2019-05-17T07:05:42.422Z,12.60
2019-05-17T07:06:42.388Z,13.20
2019-05-17T07:07:42.343Z,13.50
2019-05-17T07:08:42.298Z,13.30
2019-05-17T07:09:42.258Z,14.10
2019-05-17T07:10:42.245Z,12.80
2019-05-17T07:11:42.215Z,12.60
2019-05-17T07:12:54.980Z,12.90
2019-05-17T07:13:42.103Z,13.70
2019-05-17T07:14:42.072Z,13.40
2019-05-17T07:15:47.470Z,12.30
2019-05-17T07:16:41.998Z,12.30
2019-05-17T07:17:41.930Z,11.90
2019-05-17T07:18:41.895Z,12.60
2019-05-17T07:19:41.859Z,12.20
2019-05-17T07:20:41.821Z,12.20
2019-05-17T07:21:41.776Z,11.80
2019-05-17T07:22:41.755Z,12.50
2019-05-17T07:23:41.688Z,11.90
2019-05-17T07:24:41.651Z,11.50
2019-05-17T07:25:41.612Z,11.90
2019-05-17T07:26:41.566Z,11.90
2019-05-17T07:27:45.572Z,12.80
2019-05-17T07:28:41.509Z,12.70
2019-05-17T07:29:41.450Z,12.80
2019-05-17T07:30:41.416Z,12.40
2019-05-17T07:31:41.367Z,12.50
2019-05-17T07:32:41.334Z,12.00
2019-05-17T07:33:41.364Z,11.70
2019-05-17T07:34:41.258Z,12.20
2019-05-17T07:35:41.202Z,11.30
2019-05-17T07:36:41.159Z,11.80
2019-05-17T07:37:41.125Z,11.70
2019-05-17T07:38:41.088Z,12.20
2019-05-17T07:39:42.370Z,11.60
2019-05-17T07:40:41.018Z,11.60
2019-05-17T07:41:40.957Z,11.40
2019-05-17T07:42:41.031Z,11.80
2019-05-17T07:43:40.882Z,11.10
2019-05-17T07:44:43.611Z,11.20
2019-05-17T07:45:40.838Z,10.90
2019-05-17T07:46:40.754Z,11.70
2019-05-17T07:47:40.835Z,11.10
2019-05-17T07:48:40.718Z,10.50
2019-05-17T07:49:40.634Z,10.80
2019-05-17T07:50:40.603Z,11.00
2019-05-17T07:51:40.581Z,10.40
2019-05-17T07:52:40.514Z,11.00
2019-05-17T07:53:40.499Z,10.80
2019-05-17T07:54:40.437Z,10.00
2019-05-17T07:55:40.392Z,10.10
2019-05-17T07:56:40.415Z,10.10
2019-05-17T07:57:40.993Z,10.20
2019-05-17T07:58:40.536Z,10.40
2019-05-17T07:59:40.252Z,10.60
2019-05-17T08:00:40.440Z,11.00
2019-05-17T08:01:41.272Z,10.10
2019-05-17T08:02:40.507Z,9.80
2019-05-17T08:03:40.532Z,10.80
2019-05-17T08:04:40.707Z,10.20
2019-05-17T08:05:40.506Z,10.70
2019-05-17T08:06:40.384Z,10.90
2019-05-17T08:07:40.754Z,10.40
2019-05-17T08:08:40.985Z,10.50
2019-05-17T08:09:40.395Z,10.30
2019-05-17T08:10:40.905Z,10.00
2019-05-17T08:11:39.778Z,10.10
2019-05-17T08:12:40.622Z,10.60
2019-05-17T08:13:39.935Z,10.30
2019-05-17T08:14:40.014Z,10.60
2019-05-17T08:15:39.938Z,10.40
2019-05-17T08:16:39.555Z,10.60
2019-05-17T08:17:39.790Z,10.30
2019-05-17T08:18:40.232Z,10.10
2019-05-17T08:19:40.290Z,10.50
2019-05-17T08:20:40.079Z,10.60
2019-05-17T08:21:39.906Z,10.30
2019-05-17T08:22:40.106Z,9.60
2019-05-17T08:23:40.091Z,9.90
2019-05-17T08:24:39.949Z,10.00
2019-05-17T08:25:51.997Z,9.30
2019-05-17T08:26:40.447Z,9.50
2019-05-17T08:27:40.450Z,9.60
2019-05-17T08:28:40.419Z,9.30
2019-05-17T08:29:40.396Z,9.70
2019-05-17T08:30:40.974Z,9.00
2019-05-17T08:31:40.484Z,8.80
2019-05-17T08:32:40.077Z,8.80
2019-05-17T08:33:40.610Z,8.40
2019-05-17T08:34:40.110Z,9.20
2019-05-17T08:35:40.051Z,9.00
2019-05-17T08:36:40.515Z,8.30
2019-05-17T08:37:41.854Z,8.40
2019-05-17T08:38:39.375Z,7.90
2019-05-17T08:39:39.966Z,7.60
2019-05-17T08:40:40.545Z,7.60
2019-05-17T08:41:40.484Z,7.50
2019-05-17T08:42:40.609Z,7.10
2019-05-17T08:43:46.220Z,7.40
2019-05-17T08:44:39.368Z,7.10
2019-05-17T08:45:40.687Z,6.90
2019-05-17T08:46:39.530Z,7.20
2019-05-17T08:47:39.602Z,7.50
2019-05-17T08:48:40.144Z,7.00
2019-05-17T08:49:40.289Z,7.30
2019-05-17T08:50:40.242Z,6.80
2019-05-17T08:51:39.757Z,7.10
2019-05-17T08:52:40.215Z,6.80
2019-05-17T08:53:39.915Z,6.90
2019-05-17T08:54:42.565Z,6.60
2019-05-17T08:55:40.546Z,6.70
2019-05-17T08:56:40.206Z,6.50
2019-05-17T08:57:39.975Z,6.70
2019-05-17T08:58:40.146Z,6.60
2019-05-17T08:59:40.225Z,6.70
2019-05-17T09:00:40.602Z,6.70
2019-05-17T09:01:39.195Z,6.50
2019-05-17T09:02:38.259Z,6.20
2019-05-17T09:03:37.663Z,6.00
2019-05-17T09:04:37.631Z,6.20
2019-05-17T09:05:37.584Z,6.30
2019-05-17T09:06:39.581Z,5.90
2019-05-17T09:07:39.844Z,5.80
2019-05-17T09:08:37.492Z,5.70
2019-05-17T09:09:39.437Z,6.10
2019-05-17T09:10:37.613Z,6.20
2019-05-17T09:11:39.434Z,5.80
2019-05-17T09:12:37.328Z,5.60
2019-05-17T09:13:37.270Z,5.90
2019-05-17T09:14:37.255Z,6.10
2019-05-17T09:15:37.196Z,5.90
2019-05-17T09:16:39.911Z,6.30
2019-05-17T09:17:39.366Z,6.10
2019-05-17T09:18:39.279Z,5.50
2019-05-17T09:19:39.367Z,5.80
2019-05-17T09:20:36.997Z,6.00
2019-05-17T09:21:36.957Z,5.00
2019-05-17T09:22:39.394Z,5.80
2019-05-17T09:23:36.873Z,5.50
2019-05-17T09:24:36.832Z,5.60
2019-05-17T09:25:36.813Z,5.30
2019-05-17T09:26:36.761Z,5.60
2019-05-17T09:27:36.775Z,5.40
2019-05-17T09:28:36.680Z,5.40
2019-05-17T09:29:36.639Z,5.30
2019-05-17T09:30:36.617Z,5.30
2019-05-17T09:31:36.553Z,4.90
2019-05-17T09:32:36.520Z,5.00
2019-05-17T09:33:36.479Z,5.00
2019-05-17T09:34:36.439Z,5.00
2019-05-17T09:35:36.402Z,4.70
2019-05-17T09:36:36.376Z,4.60
2019-05-17T09:37:36.317Z,4.80
2019-05-17T09:38:36.296Z,4.30
2019-05-17T09:39:36.240Z,4.50
2019-05-17T09:40:36.214Z,4.10
2019-05-17T09:41:36.275Z,4.60
2019-05-17T09:42:36.249Z,4.10
2019-05-17T09:43:36.077Z,4.60
2019-05-17T09:44:36.108Z,4.50
2019-05-17T09:45:36.013Z,4.40
2019-05-17T09:46:35.962Z,4.50
2019-05-17T09:47:35.949Z,4.60
2019-05-17T09:48:36.070Z,4.10
2019-05-17T09:49:35.836Z,4.00
2019-05-17T09:50:35.804Z,4.40
2019-05-17T09:51:35.857Z,4.20
2019-05-17T09:52:35.723Z,4.40
2019-05-17T09:53:35.704Z,4.30
2019-05-17T09:54:42.355Z,4.00
2019-05-17T09:55:35.600Z,4.60
2019-05-17T09:56:35.558Z,4.70
2019-05-17T09:57:35.518Z,4.80
2019-05-17T09:58:35.505Z,4.60
2019-05-17T09:59:35.510Z,4.50
2019-05-17T10:00:35.411Z,4.60
2019-05-17T10:01:35.378Z,4.90
2019-05-17T10:02:35.321Z,4.30
2019-05-17T10:03:35.276Z,4.30
2019-05-17T10:04:35.269Z,4.70
2019-05-17T10:05:35.204Z,4.60
2019-05-17T10:06:35.181Z,4.10
2019-05-17T10:07:35.123Z,4.00
2019-05-17T10:08:35.218Z,3.90
2019-05-17T10:09:35.070Z,4.20
2019-05-17T10:10:35.010Z,3.80
2019-05-17T10:11:34.971Z,4.20
2019-05-17T10:12:35.071Z,3.90
2019-05-17T10:13:34.888Z,3.80
2019-05-17T10:14:34.898Z,3.80
2019-05-17T10:15:35.024Z,4.00
2019-05-17T10:16:34.761Z,3.80
2019-05-17T10:17:34.724Z,3.60
2019-05-17T10:18:34.695Z,3.70
2019-05-17T10:19:34.651Z,3.40
2019-05-17T10:20:34.627Z,3.70
2019-05-17T10:21:34.596Z,3.30
2019-05-17T10:22:34.533Z,3.40
2019-05-17T10:23:34.494Z,3.20
2019-05-17T10:24:38.973Z,3.10
2019-05-17T10:25:34.514Z,3.00
2019-05-17T10:26:34.365Z,3.60
2019-05-17T10:27:34.343Z,3.20
2019-05-17T10:28:34.284Z,3.30
2019-05-17T10:29:34.242Z,3.40
2019-05-17T10:30:34.239Z,3.70
2019-05-17T10:31:34.168Z,3.80
2019-05-17T10:32:34.153Z,4.20
2019-05-17T10:33:34.089Z,4.00
2019-05-17T10:34:34.048Z,4.10
2019-05-17T10:35:34.004Z,3.80
2019-05-17T10:36:33.987Z,4.40
2019-05-17T10:37:33.958Z,4.10
2019-05-17T10:38:33.888Z,4.40
2019-05-17T10:39:33.847Z,3.90
2019-05-17T10:40:33.800Z,3.80
2019-05-17T10:41:33.765Z,3.70
2019-05-17T10:42:33.727Z,3.50
2019-05-17T10:43:33.718Z,3.40
2019-05-17T10:44:46.322Z,3.70
2019-05-17T10:45:33.604Z,3.80
2019-05-17T10:46:33.561Z,3.80
2019-05-17T10:47:33.521Z,3.40
2019-05-17T10:48:33.479Z,3.50
2019-05-17T10:49:33.462Z,3.60
2019-05-17T10:50:33.399Z,3.50
2019-05-17T10:51:33.371Z,3.60
2019-05-17T10:52:33.315Z,3.70
2019-05-17T10:53:33.313Z,3.50
2019-05-17T10:54:33.272Z,4.00
2019-05-17T10:55:33.203Z,4.10
2019-05-17T10:56:33.161Z,3.80
2019-05-17T10:57:33.119Z,3.80
2019-05-17T10:58:33.079Z,3.60
2019-05-17T10:59:33.064Z,3.80
2019-05-17T11:00:33.047Z,3.80
2019-05-17T11:01:32.979Z,3.80
2019-05-17T11:02:32.916Z,3.70
2019-05-17T11:03:32.881Z,3.70
2019-05-17T11:04:32.837Z,3.60
2019-05-17T11:05:32.824Z,4.10
2019-05-17T11:06:32.782Z,3.80
2019-05-17T11:07:32.713Z,3.70
2019-05-17T11:08:32.680Z,4.40
2019-05-17T11:09:32.643Z,4.00
2019-05-17T11:10:32.712Z,3.90
2019-05-17T11:11:32.579Z,4.00
2019-05-17T11:12:32.513Z,4.30
2019-05-17T11:13:32.473Z,4.40
2019-05-17T11:14:32.441Z,4.50
2019-05-17T11:15:32.399Z,4.00
2019-05-17T11:16:32.364Z,4.20
2019-05-17T11:17:32.349Z,4.30
2019-05-17T11:18:32.279Z,4.30
2019-05-17T11:19:32.320Z,4.50
2019-05-17T11:20:32.247Z,4.70
2019-05-17T11:21:32.154Z,4.40
2019-05-17T11:22:32.146Z,4.80
2019-05-17T11:23:32.082Z,4.90
2019-05-17T11:24:32.046Z,5.00
2019-05-17T11:25:32.038Z,5.10
2019-05-17T11:26:31.968Z,5.10
2019-05-17T11:27:31.953Z,5.00
2019-05-17T11:28:31.884Z,5.40
2019-05-17T11:29:31.843Z,5.00
2019-05-17T11:30:31.795Z,5.40
2019-05-17T11:31:31.761Z,6.00
2019-05-17T11:32:31.723Z,5.60
2019-05-17T11:33:31.700Z,5.80
2019-05-17T11:34:31.642Z,5.00
2019-05-17T11:35:31.624Z,5.40
2019-05-17T11:36:31.560Z,5.20
2019-05-17T11:37:31.523Z,5.00
2019-05-17T11:38:31.473Z,5.70
2019-05-17T11:39:31.491Z,5.70
2019-05-17T11:40:31.533Z,6.20
2019-05-17T11:41:31.378Z,6.20
2019-05-17T11:42:31.313Z,5.50
2019-05-17T11:43:31.298Z,6.20
2019-05-17T11:44:31.234Z,5.80
2019-05-17T11:45:32.708Z,5.20
2019-05-17T11:46:36.188Z,5.50
2019-05-17T11:47:31.146Z,6.00
2019-05-17T11:48:31.078Z,6.30
2019-05-17T11:49:31.041Z,7.70
2019-05-17T11:50:31.023Z,5.80
2019-05-17T11:51:30.946Z,5.80
2019-05-17T11:52:30.908Z,5.60
2019-05-17T11:53:30.872Z,5.90
2019-05-17T11:54:30.836Z,7.30
2019-05-17T11:55:30.793Z,7.00
2019-05-17T11:56:30.776Z,6.80
2019-05-17T11:57:30.706Z,7.20
2019-05-17T11:58:30.671Z,7.30
2019-05-17T11:59:30.630Z,7.50
2019-05-17T12:00:30.594Z,7.50
2019-05-17T12:01:30.553Z,6.40
2019-05-17T12:02:30.536Z,7.40
2019-05-17T12:03:30.487Z,7.60
2019-05-17T12:04:30.430Z,7.70
2019-05-17T12:05:30.388Z,7.50
2019-05-17T12:06:30.354Z,7.80
2019-05-17T12:07:30.330Z,8.70
2019-05-17T12:08:30.259Z,9.20
2019-05-17T12:09:37.264Z,8.50
2019-05-17T12:10:30.231Z,7.10
2019-05-17T12:11:30.149Z,6.90
2019-05-17T12:12:30.117Z,6.10
2019-05-17T12:13:30.092Z,6.30
2019-05-17T12:14:30.040Z,6.20
2019-05-17T12:15:43.655Z,5.40
2019-05-17T12:16:29.942Z,6.30
2019-05-17T12:17:29.908Z,6.20
2019-05-17T12:18:29.889Z,5.80
2019-05-17T12:19:29.820Z,5.80
2019-05-17T12:20:29.780Z,6.00
2019-05-17T12:21:29.744Z,6.30
2019-05-17T12:22:29.728Z,5.30
2019-05-17T12:23:29.754Z,5.80
2019-05-17T12:24:29.629Z,5.60
2019-05-17T12:25:29.595Z,5.70
2019-05-17T12:26:29.542Z,6.40
2019-05-17T12:27:29.503Z,5.60
2019-05-17T12:28:29.497Z,5.60
2019-05-17T12:29:29.430Z,6.40
2019-05-17T12:30:29.391Z,6.70
2019-05-17T12:31:29.341Z,6.60
2019-05-17T12:32:29.302Z,5.70
2019-05-17T12:33:29.265Z,6.40
2019-05-17T12:34:29.251Z,5.70
2019-05-17T12:35:29.189Z,6.10
2019-05-17T12:36:29.150Z,5.80
2019-05-17T12:37:29.131Z,5.80
2019-05-17T12:38:29.065Z,6.20
2019-05-17T12:39:29.027Z,6.20
2019-05-17T12:40:29.015Z,6.30
2019-05-17T12:41:28.947Z,7.30
2019-05-17T12:42:28.911Z,6.80
2019-05-17T12:43:28.883Z,7.30
2019-05-17T12:44:28.841Z,7.30
2019-05-17T12:45:28.825Z,7.00
2019-05-17T12:46:28.778Z,7.50
2019-05-17T12:47:28.717Z,7.40
2019-05-17T12:48:28.737Z,7.10
2019-05-17T12:49:28.630Z,7.80
2019-05-17T12:50:28.586Z,7.80
2019-05-17T12:51:28.577Z,8.10
2019-05-17T12:52:28.535Z,7.90
2019-05-17T12:53:28.473Z,7.80
2019-05-17T12:54:28.435Z,7.30
2019-05-17T12:55:28.402Z,6.60
2019-05-17T12:56:28.526Z,8.20
2019-05-17T12:57:28.338Z,6.70
2019-05-17T12:58:28.287Z,7.80
2019-05-17T12:59:28.232Z,6.60
2019-05-17T13:00:28.335Z,6.60
2019-05-17T13:01:28.156Z,6.60
2019-05-17T13:02:28.142Z,7.10
2019-05-17T13:03:28.071Z,6.40
2019-05-17T13:04:28.035Z,7.00
2019-05-17T13:05:27.992Z,7.50
2019-05-17T13:06:27.981Z,7.00
2019-05-17T13:07:28.042Z,6.90
2019-05-17T13:08:27.908Z,6.30
2019-05-17T13:09:28.089Z,6.80
2019-05-17T13:10:27.806Z,7.20
2019-05-17T13:11:27.756Z,6.80
2019-05-17T13:12:27.738Z,6.70
2019-05-17T13:13:27.706Z,6.60
2019-05-17T13:14:27.656Z,6.10
2019-05-17T13:15:27.837Z,7.00
2019-05-17T13:16:27.565Z,7.40
2019-05-17T13:17:27.528Z,8.20
2019-05-17T13:18:27.489Z,7.50
2019-05-17T13:19:27.459Z,6.90
2019-05-17T13:20:27.440Z,7.90
2019-05-17T13:21:27.372Z,8.00
2019-05-17T13:22:27.328Z,7.00
2019-05-17T13:23:27.292Z,8.30
2019-05-17T13:24:27.247Z,6.90
2019-05-17T13:25:27.211Z,7.30
2019-05-17T13:26:27.213Z,6.70
2019-05-17T13:27:27.352Z,7.40
2019-05-17T13:28:27.099Z,6.30
2019-05-17T13:29:27.183Z,6.60
2019-05-17T13:30:27.021Z,7.00
2019-05-17T13:31:26.992Z,8.30
2019-05-17T13:32:27.105Z,7.30
2019-05-17T13:33:29.167Z,7.70
2019-05-17T13:34:26.905Z,5.90
2019-05-17T13:35:26.845Z,7.60
2019-05-17T13:36:26.783Z,6.40
2019-05-17T13:37:26.747Z,6.80
2019-05-17T13:38:26.781Z,6.20
2019-05-17T13:39:52.559Z,6.90
2019-05-17T13:40:26.643Z,6.60
2019-05-17T13:41:26.619Z,6.60
2019-05-17T13:42:27.110Z,6.40
2019-05-17T13:43:26.555Z,6.30
2019-05-17T13:44:26.520Z,6.60
2019-05-17T13:45:26.469Z,7.60